Pagrindinis puslapis
METAR-TAF:

METAR-TAF

Oro uostai :

Mykonos, Graikija

platuma: 37-26-09N, ilguma: 025-20-45E, Aukštis: 123 m

Dabartinis oras

Ataskaita buvo paskelbta 19 minutes, ne 14:50 UTC
Vėjas 2 kt nuo kintamojo kryptimis
Temperatūra 23°C
Drėgmė 41%
Slėgis 1009 hPa
Matomumas 10 km arba daugiau
nėra debesų žemiau 1500 m ir nėra kamuolinių lietaus debesų

METAR: LGMK 121450Z VRB02KT CAVOK 23/09 Q1009

Laikas: 18:09 (15:09 UTC)

Prognozė

Ataskaita buvo paskelbta 1 valandą ir 9 minutes, ne 14:00 UTC
Prognozė galioja nuo 12 metu 15 UTC su 12 metu 24 UTC
Vėjas 5 kt nuo kintamojo kryptimis
Matomumas 10 km arba daugiau
Mažai debesys ne aukštis 2500 ft
Tapsmas
nuo 12 metu 15 UTC su 12 metu 17 UTC
Vėjas 15 kt iš Pietų/Pietvakarių

TAF: LGMK 121400Z 1215/1224 VRB05KT 9999 FEW025 BECMG 1215/1217 20015KT

Orai ataskaitas ir orų prognozės (METAR, TAF).

turimą stotys yra geltonos ir raudonos taškus žemėlapyje.

Perkelti pele per norėdami pamatyti stoties vardą.

Tada spustelėkite, norėdami matyti oro stebėjimo ir prognozės.

Norėdami pakeisti žemėlapį: spustelėkite ant žalios mygtukų su juodo kryžiaus žemyn,; žalią mygtuką su brūkšneliu, jei norite nutolinti; arba žalių rodyklių gretimoms žemėlapius.


METAR-TAF: